KUNV 250953Z 00000KT 6SM -RA BKN029 OVC039 07/02 A3003